Time;durP1;ratioP1;P1;durP2;ratioP2;P2;SDS_P1;SDS_P2;PMS_P1;PMS_P2;Temp;Humidity;BMP_temperature;BMP_pressure;BME280_temperature;BME280_humidity;BME280_pressure;Samples;Min_cycle;Max_cycle;Signal;HPM_P1;HPM_P2
2023/05/07 00:00:01;;;;;;;8.70;7.28;;;;;;;;;;5026875;27;100611;-80
2023/05/07 00:02:27;;;;;;;8.50;7.70;;;;;;;;;;5028175;28;99600;-81
2023/05/07 00:04:55;;;;;;;8.25;7.47;;;;;;;;;;5025826;28;100391;-81
2023/05/07 00:07:22;;;;;;;9.30;8.02;;;;;;;;;;5025757;28;100085;-80
2023/05/07 00:09:49;;;;;;;10.50;8.15;;;;;;;;;;5025188;28;100353;-81
2023/05/07 00:12:15;;;;;;;9.43;7.05;;;;;;;;;;5024889;28;99175;-81
2023/05/07 00:14:41;;;;;;;12.57;7.95;;;;;;;;;;5025657;28;100588;-81
2023/05/07 00:17:08;;;;;;;8.02;7.32;;;;;;;;;;5025284;28;100155;-81
2023/05/07 00:19:34;;;;;;;8.48;7.78;;;;;;;;;;5025082;28;98631;-81
2023/05/07 00:22:01;;;;;;;13.43;8.10;;;;;;;;;;5025783;28;100271;-80
2023/05/07 00:24:27;;;;;;;8.93;8.05;;;;;;;;;;5027437;28;99354;-80
2023/05/07 00:26:54;;;;;;;8.88;8.07;;;;;;;;;;5025024;28;99487;-81
2023/05/07 00:29:20;;;;;;;9.40;8.43;;;;;;;;;;5025336;28;99971;-81
2023/05/07 00:31:48;;;;;;;9.32;7.80;;;;;;;;;;5009806;27;100798;-81
2023/05/07 00:34:16;;;;;;;8.95;8.13;;;;;;;;;;5045537;27;99132;-80
2023/05/07 00:36:42;;;;;;;9.23;8.32;;;;;;;;;;5026024;27;99098;-80
2023/05/07 00:39:08;;;;;;;9.10;8.27;;;;;;;;;;5024889;28;98800;-81
2023/05/07 00:41:35;;;;;;;16.65;9.38;;;;;;;;;;5025584;28;99495;-81
2023/05/07 00:44:02;;;;;;;11.93;9.05;;;;;;;;;;5025460;28;98883;-81
2023/05/07 00:46:30;;;;;;;9.55;8.60;;;;;;;;;;5009585;28;101673;-81
2023/05/07 00:48:57;;;;;;;9.32;8.38;;;;;;;;;;5025105;28;99298;-81
2023/05/07 00:51:24;;;;;;;11.10;8.70;;;;;;;;;;4990479;28;100449;-81
2023/05/07 00:53:51;;;;;;;10.10;9.07;;;;;;;;;;5006157;28;100239;-81
2023/05/07 00:56:17;;;;;;;9.55;8.10;;;;;;;;;;5024845;28;100048;-81
2023/05/07 00:58:44;;;;;;;10.82;8.68;;;;;;;;;;5026485;27;99347;-81
2023/05/07 01:01:10;;;;;;;10.20;8.48;;;;;;;;;;5028113;28;99240;-82
2023/05/07 01:03:37;;;;;;;10.40;9.38;;;;;;;;;;5025787;28;100403;-82
2023/05/07 01:06:06;;;;;;;9.32;8.35;;;;;;;;;;5027363;28;98860;-81
2023/05/07 01:08:34;;;;;;;9.50;8.70;;;;;;;;;;5031450;28;99216;-81
2023/05/07 01:11:01;;;;;;;8.95;8.15;;;;;;;;;;5028143;27;99863;-82
2023/05/07 01:13:28;;;;;;;10.00;9.07;;;;;;;;;;5027139;28;101341;-81
2023/05/07 01:15:54;;;;;;;8.90;8.10;;;;;;;;;;5010289;28;100918;-81
2023/05/07 01:18:21;;;;;;;14.75;8.13;;;;;;;;;;5028507;28;98943;-82
2023/05/07 01:20:48;;;;;;;9.90;8.80;;;;;;;;;;5009429;28;101901;-81
2023/05/07 01:23:15;;;;;;;10.27;9.00;;;;;;;;;;5010291;28;102400;-82
2023/05/07 01:25:41;;;;;;;8.98;8.10;;;;;;;;;;5009715;28;101820;-81
2023/05/07 01:28:09;;;;;;;9.98;9.10;;;;;;;;;;5043311;27;99750;-81
2023/05/07 01:30:41;;;;;;;9.65;8.55;;;;;;;;;;5013598;28;98939;-81
2023/05/07 01:33:08;;;;;;;13.93;9.52;;;;;;;;;;5020287;27;99101;-82
2023/05/07 01:35:40;;;;;;;10.35;9.35;;;;;;;;;;4988565;28;100000;-81
2023/05/07 01:38:06;;;;;;;9.38;8.38;;;;;;;;;;4989052;28;99202;-82
2023/05/07 01:40:34;;;;;;;9.65;8.80;;;;;;;;;;4989478;28;101805;-82
2023/05/07 01:43:01;;;;;;;9.40;8.52;;;;;;;;;;5011292;28;98845;-82
2023/05/07 01:45:30;;;;;;;9.68;8.68;;;;;;;;;;5009249;28;100755;-81
2023/05/07 01:47:58;;;;;;;9.52;8.65;;;;;;;;;;5028044;28;100539;-80
2023/05/07 01:50:25;;;;;;;9.80;8.90;;;;;;;;;;5026946;28;100649;-80
2023/05/07 01:52:51;;;;;;;9.50;8.40;;;;;;;;;;5012379;28;101090;-82
2023/05/07 01:55:18;;;;;;;9.90;8.93;;;;;;;;;;5027536;28;99106;-83
2023/05/07 01:57:45;;;;;;;10.35;9.35;;;;;;;;;;5009842;28;101260;-81
2023/05/07 02:00:12;;;;;;;10.55;9.10;;;;;;;;;;5009414;28;102094;-81
2023/05/07 02:02:41;;;;;;;9.80;8.82;;;;;;;;;;5026875;28;99363;-81
2023/05/07 02:05:18;;;;;;;9.68;8.77;;;;;;;;;;5009425;28;101838;-81
2023/05/07 02:07:49;;;;;;;16.05;9.30;;;;;;;;;;5009635;28;101651;-81
2023/05/07 02:10:16;;;;;;;9.73;8.82;;;;;;;;;;5008257;28;101320;-82
2023/05/07 02:12:42;;;;;;;12.35;10.95;;;;;;;;;;5012878;28;101863;-81
2023/05/07 02:15:10;;;;;;;11.13;10.02;;;;;;;;;;5027502;28;101164;-82
2023/05/07 02:17:39;;;;;;;12.63;9.90;;;;;;;;;;5026278;28;99844;-80
2023/05/07 02:20:12;;;;;;;12.05;10.90;;;;;;;;;;5010072;28;100950;-82
2023/05/07 02:22:40;;;;;;;12.23;10.93;;;;;;;;;;5009485;28;102084;-82
2023/05/07 02:25:07;;;;;;;13.77;11.98;;;;;;;;;;5026736;28;100467;-82
2023/05/07 02:27:33;;;;;;;12.68;11.48;;;;;;;;;;5026820;28;99864;-82
2023/05/07 02:30:00;;;;;;;13.25;11.95;;;;;;;;;;5027495;28;98893;-81
2023/05/07 02:32:26;;;;;;;12.38;11.27;;;;;;;;;;5017733;28;100181;-82
2023/05/07 02:34:53;;;;;;;11.80;10.75;;;;;;;;;;5021385;28;99574;-82
2023/05/07 02:37:19;;;;;;;12.13;10.35;;;;;;;;;;5008747;28;102104;-81
2023/05/07 02:39:46;;;;;;;21.73;11.23;;;;;;;;;;5009318;28;100295;-82
2023/05/07 02:42:12;;;;;;;13.02;11.50;;;;;;;;;;5027424;28;98759;-81
2023/05/07 02:44:39;;;;;;;16.00;13.00;;;;;;;;;;5009031;28;99159;-82
2023/05/07 02:47:08;;;;;;;13.20;11.93;;;;;;;;;;5009331;28;100696;-80
2023/05/07 02:49:37;;;;;;;14.18;12.57;;;;;;;;;;5009015;28;99954;-81
2023/05/07 02:52:03;;;;;;;14.25;12.82;;;;;;;;;;5009395;28;100428;-82
2023/05/07 02:54:30;;;;;;;14.00;12.60;;;;;;;;;;5032242;28;99005;-81
2023/05/07 02:56:57;;;;;;;14.10;12.68;;;;;;;;;;5040660;28;98503;-81
2023/05/07 02:59:25;;;;;;;14.02;12.48;;;;;;;;;;5031533;28;99463;-80
2023/05/07 03:01:51;;;;;;;13.07;11.95;;;;;;;;;;5011648;28;99917;-81
2023/05/07 03:04:18;;;;;;;14.18;12.65;;;;;;;;;;5014748;28;101615;-80
2023/05/07 03:06:44;;;;;;;15.00;11.68;;;;;;;;;;5037119;28;99200;-79
2023/05/07 03:09:11;;;;;;;14.88;11.25;;;;;;;;;;5016152;28;101425;-81
2023/05/07 03:11:37;;;;;;;13.18;11.75;;;;;;;;;;5026387;28;98860;-81
2023/05/07 03:14:04;;;;;;;13.25;11.85;;;;;;;;;;5025777;28;99775;-82
2023/05/07 03:16:31;;;;;;;16.92;12.27;;;;;;;;;;5009127;28;100390;-81
2023/05/07 03:18:57;;;;;;;13.18;11.77;;;;;;;;;;5011121;28;99974;-81
2023/05/07 03:21:24;;;;;;;12.57;11.35;;;;;;;;;;5006001;28;100891;-80
2023/05/07 03:23:50;;;;;;;13.82;11.82;;;;;;;;;;5026702;28;100038;-82
2023/05/07 03:26:16;;;;;;;13.35;11.73;;;;;;;;;;5026110;28;99240;-82
2023/05/07 03:28:44;;;;;;;12.48;11.30;;;;;;;;;;5007735;28;102177;-80
2023/05/07 03:31:12;;;;;;;14.25;11.85;;;;;;;;;;5008166;28;101516;-80
2023/05/07 03:33:49;;;;;;;16.92;11.80;;;;;;;;;;4994944;28;101284;-82
2023/05/07 03:36:16;;;;;;;14.13;12.00;;;;;;;;;;5025090;28;99259;-78
2023/05/07 03:38:43;;;;;;;16.20;12.60;;;;;;;;;;5026337;28;99928;-83
2023/05/07 03:41:11;;;;;;;13.80;12.00;;;;;;;;;;5028307;28;100637;-81
2023/05/07 03:43:43;;;;;;;14.48;11.52;;;;;;;;;;5024906;28;102425;-81
2023/05/07 03:46:11;;;;;;;15.07;12.52;;;;;;;;;;5008284;28;100531;-82
2023/05/07 03:48:37;;;;;;;15.05;12.40;;;;;;;;;;5025218;28;100255;-81
2023/05/07 03:51:05;;;;;;;14.13;12.35;;;;;;;;;;5007765;28;100186;-80
2023/05/07 03:53:32;;;;;;;14.60;12.52;;;;;;;;;;5007029;28;101374;-81
2023/05/07 03:55:59;;;;;;;13.98;12.65;;;;;;;;;;5007075;28;101710;-83
2023/05/07 03:58:28;;;;;;;14.18;12.75;;;;;;;;;;5007948;28;99237;-82
2023/05/07 04:00:57;;;;;;;17.92;12.90;;;;;;;;;;5007753;28;99331;-82
2023/05/07 04:03:26;;;;;;;14.85;13.43;;;;;;;;;;5009490;28;98930;-81
2023/05/07 04:05:56;;;;;;;16.30;14.40;;;;;;;;;;5007602;28;103290;-82
2023/05/07 04:08:23;;;;;;;15.68;13.50;;;;;;;;;;5026643;28;99068;-81
2023/05/07 04:10:55;;;;;;;15.65;13.95;;;;;;;;;;5006827;28;100923;-81
2023/05/07 04:13:25;;;;;;;16.48;14.48;;;;;;;;;;5007541;28;102198;-82
2023/05/07 04:15:52;;;;;;;24.60;14.13;;;;;;;;;;5006782;28;101929;-82
2023/05/07 04:18:19;;;;;;;18.50;13.68;;;;;;;;;;5007387;28;101826;-81
2023/05/07 04:20:47;;;;;;;17.42;15.35;;;;;;;;;;5007745;28;101294;-81
2023/05/07 04:23:16;;;;;;;19.00;15.38;;;;;;;;;;5028507;28;100042;-81
2023/05/07 04:25:43;;;;;;;17.20;15.48;;;;;;;;;;5007681;28;100517;-82
2023/05/07 04:28:23;;;;;;;16.35;14.35;;;;;;;;;;5007109;28;101188;-82
2023/05/07 04:30:50;;;;;;;19.42;15.55;;;;;;;;;;5005950;28;101142;-81
2023/05/07 04:33:18;;;;;;;17.20;14.57;;;;;;;;;;5009842;28;101586;-82
2023/05/07 04:35:46;;;;;;;15.10;13.63;;;;;;;;;;5012240;28;99912;-82
2023/05/07 04:38:13;;;;;;;18.45;14.70;;;;;;;;;;5010598;28;101717;-81
2023/05/07 04:40:41;;;;;;;15.70;14.10;;;;;;;;;;5029381;28;99085;-82
2023/05/07 04:43:09;;;;;;;15.60;14.05;;;;;;;;;;5011064;28;101689;-80
2023/05/07 04:45:44;;;;;;;14.60;12.65;;;;;;;;;;5013559;28;100157;-81
2023/05/07 04:48:11;;;;;;;15.07;13.05;;;;;;;;;;5029858;28;98937;-80
2023/05/07 04:50:39;;;;;;;16.83;13.35;;;;;;;;;;5010297;28;100946;-82
2023/05/07 04:53:08;;;;;;;18.98;13.65;;;;;;;;;;5009668;28;100132;-81
2023/05/07 04:55:34;;;;;;;16.77;12.80;;;;;;;;;;5028404;28;99270;-81
2023/05/07 04:58:02;;;;;;;15.52;13.45;;;;;;;;;;5010031;28;99713;-81
2023/05/07 05:00:31;;;;;;;14.63;13.20;;;;;;;;;;5028559;28;100190;-82
2023/05/07 05:02:59;;;;;;;19.75;13.70;;;;;;;;;;5010457;28;101796;-81
2023/05/07 05:05:27;;;;;;;19.15;14.02;;;;;;;;;;5009711;28;99211;-80
2023/05/07 05:07:54;;;;;;;15.38;13.68;;;;;;;;;;5013580;28;101154;-80
2023/05/07 05:10:21;;;;;;;15.90;14.27;;;;;;;;;;5010888;28;100051;-81
2023/05/07 05:12:50;;;;;;;17.02;14.80;;;;;;;;;;5010786;28;98633;-80
2023/05/07 05:15:22;;;;;;;15.55;13.90;;;;;;;;;;5010706;28;99819;-82
2023/05/07 05:17:49;;;;;;;16.80;14.35;;;;;;;;;;5028596;28;100514;-81
2023/05/07 05:20:15;;;;;;;16.88;14.00;;;;;;;;;;5027314;28;99947;-82
2023/05/07 05:22:42;;;;;;;17.55;14.90;;;;;;;;;;5009496;28;99904;-81
2023/05/07 05:25:09;;;;;;;15.45;13.90;;;;;;;;;;5009925;28;98976;-82
2023/05/07 05:27:36;;;;;;;17.77;14.35;;;;;;;;;;4995632;28;102532;-82
2023/05/07 05:30:05;;;;;;;16.35;14.88;;;;;;;;;;4993025;28;101370;-81
2023/05/07 05:32:32;;;;;;;18.33;14.50;;;;;;;;;;4994993;27;99425;-80
2023/05/07 05:35:00;;;;;;;17.58;14.80;;;;;;;;;;5007452;28;101755;-81
2023/05/07 05:37:31;;;;;;;16.02;14.48;;;;;;;;;;5027273;28;99280;-81
2023/05/07 05:39:59;;;;;;;17.45;14.63;;;;;;;;;;5002021;28;101209;-81
2023/05/07 05:42:27;;;;;;;16.60;14.77;;;;;;;;;;5016553;28;102141;-81
2023/05/07 05:44:54;;;;;;;11.85;10.73;;;;;;;;;;5006665;28;100825;-81
2023/05/07 05:47:21;;;;;;;17.98;16.13;;;;;;;;;;5023494;28;99641;-80
2023/05/07 05:49:48;;;;;;;18.05;15.70;;;;;;;;;;5000953;28;100979;-81
2023/05/07 05:52:17;;;;;;;18.88;16.42;;;;;;;;;;5008714;28;99996;-82
2023/05/07 05:54:44;;;;;;;14.20;12.52;;;;;;;;;;5006206;27;98882;-80
2023/05/07 05:57:11;;;;;;;19.75;17.40;;;;;;;;;;5005394;28;101751;-82
2023/05/07 05:59:38;;;;;;;22.58;17.40;;;;;;;;;;5009805;28;99271;-82
2023/05/07 06:02:05;;;;;;;18.85;16.92;;;;;;;;;;5025448;27;98891;-83
2023/05/07 06:04:31;;;;;;;18.38;16.48;;;;;;;;;;5028536;28;98528;-83
2023/05/07 06:06:58;;;;;;;17.08;15.27;;;;;;;;;;5009861;28;101698;-83
2023/05/07 06:09:25;;;;;;;18.02;15.98;;;;;;;;;;5008419;28;99512;-82
2023/05/07 06:11:52;;;;;;;20.38;16.95;;;;;;;;;;5013109;28;100696;-81
2023/05/07 06:14:18;;;;;;;18.50;16.70;;;;;;;;;;5009349;28;101935;-82
2023/05/07 06:16:45;;;;;;;18.90;17.00;;;;;;;;;;5008973;28;101435;-84
2023/05/07 06:19:11;;;;;;;20.25;18.10;;;;;;;;;;5027536;28;99610;-83
2023/05/07 06:21:41;;;;;;;18.05;16.20;;;;;;;;;;5009649;28;101296;-83
2023/05/07 06:24:08;;;;;;;19.05;17.10;;;;;;;;;;5009130;28;98994;-82
2023/05/07 06:26:36;;;;;;;22.55;17.42;;;;;;;;;;5009763;28;99745;-83
2023/05/07 06:29:02;;;;;;;15.90;14.32;;;;;;;;;;5005786;28;101379;-78
2023/05/07 06:31:30;;;;;;;13.77;12.32;;;;;;;;;;5003789;28;101104;-77
2023/05/07 06:34:03;;;;;;;16.77;14.80;;;;;;;;;;5000843;28;102707;-78
2023/05/07 06:36:36;;;;;;;;;;;;;;;;;;5003931;28;102422;-74
2023/05/07 06:39:13;;;;;;;14.07;12.68;;;;;;;;;;5002106;28;101576;-75
2023/05/07 06:41:39;;;;;;;16.60;12.43;;;;;;;;;;4995365;28;100200;-75
2023/05/07 06:44:14;;;;;;;19.45;17.55;;;;;;;;;;4997427;28;101510;-80
2023/05/07 06:46:45;;;;;;;20.88;17.35;;;;;;;;;;5005137;28;101330;-81
2023/05/07 06:49:13;;;;;;;21.15;18.77;;;;;;;;;;5004753;28;100808;-80
2023/05/07 06:51:40;;;;;;;22.23;19.80;;;;;;;;;;5006837;28;99520;-81
2023/05/07 06:54:06;;;;;;;22.85;18.08;;;;;;;;;;5007007;28;99539;-83
2023/05/07 06:56:35;;;;;;;20.88;18.73;;;;;;;;;;5010460;28;100903;-82
2023/05/07 06:59:04;;;;;;;20.30;18.23;;;;;;;;;;5007881;28;102517;-79
2023/05/07 07:01:35;;;;;;;21.13;18.63;;;;;;;;;;5005063;28;101445;-81
2023/05/07 07:04:03;;;;;;;20.70;18.63;;;;;;;;;;5007613;28;101952;-82
2023/05/07 07:06:31;;;;;;;20.33;18.23;;;;;;;;;;5005772;28;101851;-82
2023/05/07 07:09:00;;;;;;;20.23;18.25;;;;;;;;;;5008414;28;101861;-82
2023/05/07 07:11:27;;;;;;;19.38;17.42;;;;;;;;;;5008517;28;101844;-82
2023/05/07 07:13:54;;;;;;;19.48;17.52;;;;;;;;;;5006765;28;102099;-82
2023/05/07 07:16:21;;;;;;;18.00;16.00;;;;;;;;;;5008740;28;101702;-81
2023/05/07 07:18:50;;;;;;;18.08;16.27;;;;;;;;;;5008371;28;99998;-82
2023/05/07 07:21:18;;;;;;;16.75;15.13;;;;;;;;;;5006575;28;99906;-83
2023/05/07 07:23:45;;;;;;;16.83;15.15;;;;;;;;;;5004941;28;100409;-81
2023/05/07 07:26:11;;;;;;;17.67;15.88;;;;;;;;;;5008240;28;101108;-82
2023/05/07 07:28:45;;;;;;;16.70;14.10;;;;;;;;;;5004693;28;99033;-83
2023/05/07 07:31:16;;;;;;;17.13;15.57;;;;;;;;;;5011632;27;101453;-83
2023/05/07 07:33:43;;;;;;;16.95;15.45;;;;;;;;;;5028259;27;101512;-82
2023/05/07 07:36:10;;;;;;;16.67;14.95;;;;;;;;;;5027902;27;99759;-83
2023/05/07 07:38:37;;;;;;;16.70;15.13;;;;;;;;;;5023647;27;101083;-82
2023/05/07 07:41:04;;;;;;;14.77;13.35;;;;;;;;;;5001834;27;99782;-83
2023/05/07 07:43:30;;;;;;;15.93;14.65;;;;;;;;;;5013420;27;99278;-81
2023/05/07 07:45:57;;;;;;;17.30;15.80;;;;;;;;;;5015928;28;102026;-81
2023/05/07 07:48:25;;;;;;;15.68;14.40;;;;;;;;;;5014943;27;101036;-81
2023/05/07 07:50:52;;;;;;;15.80;14.40;;;;;;;;;;4998296;28;102723;-82
2023/05/07 07:53:19;;;;;;;16.85;15.25;;;;;;;;;;5006045;28;102074;-82
2023/05/07 07:55:46;;;;;;;16.08;13.82;;;;;;;;;;5003819;28;102169;-82
2023/05/07 07:58:16;;;;;;;14.00;12.57;;;;;;;;;;5006044;28;102002;-79
2023/05/07 08:00:42;;;;;;;16.73;12.70;;;;;;;;;;5025689;28;99512;-77
2023/05/07 08:03:10;;;;;;;14.02;12.75;;;;;;;;;;5000736;27;99264;-81
2023/05/07 08:05:41;;;;;;;14.70;12.70;;;;;;;;;;5017601;27;99722;-82
2023/05/07 08:08:08;;;;;;;15.48;13.93;;;;;;;;;;5005443;28;101609;-83
2023/05/07 08:10:38;;;;;;;16.73;15.07;;;;;;;;;;5014264;27;100629;-81
2023/05/07 08:13:10;;;;;;;14.93;13.68;;;;;;;;;;5016038;28;102521;-82
2023/05/07 08:15:39;;;;;;;14.82;13.40;;;;;;;;;;5006557;28;101360;-82
2023/05/07 08:18:06;;;;;;;16.52;15.02;;;;;;;;;;4999904;28;101544;-81
2023/05/07 08:20:35;;;;;;;15.00;13.63;;;;;;;;;;4987769;28;101810;-81
2023/05/07 08:23:02;;;;;;;15.85;14.25;;;;;;;;;;5004645;28;102194;-82
2023/05/07 08:25:29;;;;;;;16.20;14.63;;;;;;;;;;5017982;27;100219;-81
2023/05/07 08:27:55;;;;;;;16.67;14.32;;;;;;;;;;5004837;28;101843;-79
2023/05/07 08:30:22;;;;;;;16.08;14.65;;;;;;;;;;5004885;28;101909;-84
2023/05/07 08:32:50;;;;;;;16.23;14.63;;;;;;;;;;5001087;28;101810;-83
2023/05/07 08:35:17;;;;;;;16.52;15.02;;;;;;;;;;5013541;27;98807;-81
2023/05/07 08:37:44;;;;;;;15.52;14.00;;;;;;;;;;5012996;28;100039;-79
2023/05/07 08:40:11;;;;;;;18.40;16.58;;;;;;;;;;5007428;28;101443;-79
2023/05/07 08:42:41;;;;;;;20.80;18.63;;;;;;;;;;5006688;28;101718;-78
2023/05/07 08:45:09;;;;;;;21.77;19.67;;;;;;;;;;5009944;28;101941;-80
2023/05/07 08:47:44;;;;;;;22.77;20.65;;;;;;;;;;5007031;28;101615;-78
2023/05/07 08:50:11;;;;;;;21.20;18.98;;;;;;;;;;5000574;28;101378;-80
2023/05/07 08:52:43;;;;;;;20.63;18.92;;;;;;;;;;5004939;28;100589;-80
2023/05/07 08:55:12;;;;;;;20.60;18.58;;;;;;;;;;4983920;28;98966;-80
2023/05/07 08:57:40;;;;;;;21.80;19.60;;;;;;;;;;4984467;28;99497;-79
2023/05/07 09:00:09;;;;;;;20.95;18.95;;;;;;;;;;4987800;28;100501;-80
2023/05/07 09:02:37;;;;;;;22.30;20.20;;;;;;;;;;4975275;28;101823;-80
2023/05/07 09:05:05;;;;;;;22.98;20.05;;;;;;;;;;4986651;28;100689;-80
2023/05/07 09:07:32;;;;;;;23.23;20.88;;;;;;;;;;4974384;28;101845;-80
2023/05/07 09:10:01;;;;;;;22.02;19.80;;;;;;;;;;4967463;28;101170;-79
2023/05/07 09:12:28;;;;;;;21.10;19.10;;;;;;;;;;4982830;28;100496;-78
2023/05/07 09:14:54;;;;;;;22.30;19.15;;;;;;;;;;4985288;28;98927;-79
2023/05/07 09:17:21;;;;;;;20.13;18.33;;;;;;;;;;4967083;28;101570;-78
2023/05/07 09:19:48;;;;;;;19.80;17.67;;;;;;;;;;4967913;28;100289;-77
2023/05/07 09:22:15;;;;;;;23.45;20.92;;;;;;;;;;4970322;28;101840;-77
2023/05/07 09:24:51;;;;;;;23.92;21.25;;;;;;;;;;4987143;28;99017;-77
2023/05/07 09:27:21;;;;;;;23.58;20.75;;;;;;;;;;4987066;28;100885;-79
2023/05/07 09:29:47;;;;;;;22.67;20.45;;;;;;;;;;4973615;28;101718;-78
2023/05/07 09:32:15;;;;;;;20.77;18.85;;;;;;;;;;4986150;28;101146;-79
2023/05/07 09:34:42;;;;;;;21.35;19.27;;;;;;;;;;4988261;28;99401;-79
2023/05/07 09:37:12;;;;;;;20.38;18.33;;;;;;;;;;4969974;28;101198;-79
2023/05/07 09:39:39;;;;;;;21.65;19.52;;;;;;;;;;4969585;28;101355;-78
2023/05/07 09:42:06;;;;;;;19.95;17.92;;;;;;;;;;4987058;28;101717;-77
2023/05/07 09:44:35;;;;;;;24.73;17.48;;;;;;;;;;4970538;28;100920;-80
2023/05/07 09:47:05;;;;;;;19.02;17.23;;;;;;;;;;4986625;28;100260;-79
2023/05/07 09:49:39;;;;;;;16.88;15.13;;;;;;;;;;4973858;28;100833;-77
2023/05/07 09:52:10;;;;;;;17.92;16.23;;;;;;;;;;4993333;28;100317;-79
2023/05/07 09:54:43;;;;;;;17.52;15.80;;;;;;;;;;4990486;28;99438;-78
2023/05/07 09:57:13;;;;;;;16.45;14.90;;;;;;;;;;5012629;28;98768;-79
2023/05/07 09:59:45;;;;;;;15.80;14.20;;;;;;;;;;4992696;28;102187;-80
2023/05/07 10:02:15;;;;;;;15.32;12.38;;;;;;;;;;4991196;28;102024;-80
2023/05/07 10:04:48;;;;;;;14.10;12.75;;;;;;;;;;5007832;28;98941;-80
2023/05/07 10:07:17;;;;;;;14.85;12.80;;;;;;;;;;4989826;28;101345;-80
2023/05/07 10:09:46;;;;;;;13.57;12.18;;;;;;;;;;4990046;28;98957;-80
2023/05/07 10:12:23;;;;;;;12.88;11.52;;;;;;;;;;4989879;28;99901;-80
2023/05/07 10:14:51;;;;;;;12.93;10.75;;;;;;;;;;5010229;28;99174;-79
2023/05/07 10:17:18;;;;;;;13.68;11.73;;;;;;;;;;4988814;28;99289;-79
2023/05/07 10:19:46;;;;;;;12.30;11.25;;;;;;;;;;4973293;28;100867;-79
2023/05/07 10:22:13;;;;;;;12.38;11.18;;;;;;;;;;4989159;28;101682;-80
2023/05/07 10:24:44;;;;;;;12.85;11.50;;;;;;;;;;4989243;28;101698;-79
2023/05/07 10:27:15;;;;;;;12.50;11.30;;;;;;;;;;4989819;28;99467;-81
2023/05/07 10:29:50;;;;;;;12.73;11.57;;;;;;;;;;4987970;28;101221;-80
2023/05/07 10:32:36;;;;;;;14.23;11.93;;;;;;;;;;4989160;28;101898;-80
2023/05/07 10:35:06;;;;;;;14.45;13.05;;;;;;;;;;4993247;28;98618;-81
2023/05/07 10:37:33;;;;;;;13.77;12.63;;;;;;;;;;4988256;28;101123;-79
2023/05/07 10:40:00;;;;;;;15.63;12.88;;;;;;;;;;4984756;28;101850;-80
2023/05/07 10:42:30;;;;;;;19.27;11.90;;;;;;;;;;4975613;28;99370;-81
2023/05/07 10:44:57;;;;;;;12.85;11.63;;;;;;;;;;4986616;28;99612;-81
2023/05/07 10:47:28;;;;;;;14.18;12.80;;;;;;;;;;4979092;28;101180;-80
2023/05/07 10:50:04;;;;;;;13.43;12.13;;;;;;;;;;4989355;28;99023;-80
2023/05/07 10:52:34;;;;;;;11.82;10.60;;;;;;;;;;4989099;28;100741;-81
2023/05/07 10:55:17;;;;;;;14.18;12.82;;;;;;;;;;5009186;28;102365;-79
2023/05/07 10:57:50;;;;;;;14.05;12.82;;;;;;;;;;5011249;28;101022;-80
2023/05/07 11:00:23;;;;;;;13.20;11.90;;;;;;;;;;5008514;28;98650;-76
2023/05/07 11:03:06;;;;;;;;;;;;;;;;;;4998516;28;101043;-81
2023/05/07 11:05:41;;;;;;;14.73;13.13;;;;;;;;;;5009821;28;102164;-81
2023/05/07 11:08:22;;;;;;;14.10;11.98;;;;;;;;;;5004350;28;102287;-82
2023/05/07 11:10:59;;;;;;;15.27;12.27;;;;;;;;;;5006593;28;101819;-81
2023/05/07 11:13:42;;;;;;;12.95;11.75;;;;;;;;;;4988910;28;99085;-82
2023/05/07 11:16:18;;;;;;;13.82;12.52;;;;;;;;;;5006490;28;101600;-82
2023/05/07 11:18:52;;;;;;;13.82;12.63;;;;;;;;;;5007287;27;101380;-81
2023/05/07 11:21:33;;;;;;;15.27;13.40;;;;;;;;;;5017422;27;99401;-79
2023/05/07 11:24:24;;;;;;;15.00;13.60;;;;;;;;;;5013782;28;98564;-80
2023/05/07 11:27:01;;;;;;;13.68;12.50;;;;;;;;;;5012547;28;98922;-80
2023/05/07 11:29:29;;;;;;;14.40;12.85;;;;;;;;;;5013053;28;100302;-81
2023/05/07 11:32:04;;;;;;;14.73;13.32;;;;;;;;;;4989523;28;99962;-81
2023/05/07 11:34:38;;;;;;;14.27;12.93;;;;;;;;;;5016486;28;99256;-79
2023/05/07 11:37:07;;;;;;;15.50;13.25;;;;;;;;;;5036066;28;99109;-81
2023/05/07 11:39:45;;;;;;;14.02;12.48;;;;;;;;;;5034408;28;99465;-80
2023/05/07 11:42:28;;;;;;;14.93;13.52;;;;;;;;;;5011392;28;99586;-82
2023/05/07 11:45:01;;;;;;;17.65;13.20;;;;;;;;;;5038005;28;99421;-81
2023/05/07 11:47:35;;;;;;;15.80;13.13;;;;;;;;;;5022379;28;98588;-81
2023/05/07 11:50:05;;;;;;;15.10;13.65;;;;;;;;;;5014189;28;100575;-81
2023/05/07 11:52:33;;;;;;;15.60;12.77;;;;;;;;;;5016507;28;99318;-81
2023/05/07 11:55:04;;;;;;;15.73;14.32;;;;;;;;;;5032127;28;98486;-81
2023/05/07 11:57:32;;;;;;;16.95;13.38;;;;;;;;;;5030285;28;100000;-80
2023/05/07 12:00:03;;;;;;;14.60;13.27;;;;;;;;;;5027893;28;100709;-80
2023/05/07 12:02:51;;;;;;;17.88;14.02;;;;;;;;;;4998205;28;99533;-80
2023/05/07 12:05:18;;;;;;;15.05;13.73;;;;;;;;;;5003296;28;100197;-82
2023/05/07 12:07:45;;;;;;;14.15;12.80;;;;;;;;;;4998773;28;100089;-81
2023/05/07 12:10:12;;;;;;;16.30;14.05;;;;;;;;;;4991878;28;100219;-80
2023/05/07 12:12:40;;;;;;;14.05;12.73;;;;;;;;;;5003542;28;99941;-78
2023/05/07 12:15:09;;;;;;;17.17;13.10;;;;;;;;;;4985532;28;100270;-79
2023/05/07 12:17:41;;;;;;;14.88;13.38;;;;;;;;;;4987751;28;98576;-80
2023/05/07 12:20:10;;;;;;;14.85;13.52;;;;;;;;;;4996926;28;99213;-81
2023/05/07 12:22:37;;;;;;;14.82;13.32;;;;;;;;;;5006146;28;99251;-80
2023/05/07 12:25:05;;;;;;;14.63;12.60;;;;;;;;;;4980017;28;101005;-80
2023/05/07 12:27:36;;;;;;;19.90;15.05;;;;;;;;;;5003636;28;99903;-81
2023/05/07 12:30:03;;;;;;;14.23;12.75;;;;;;;;;;4989217;28;100894;-79
2023/05/07 12:32:30;;;;;;;15.43;13.82;;;;;;;;;;5002194;28;100645;-81
2023/05/07 12:34:57;;;;;;;15.25;13.70;;;;;;;;;;5010610;27;99594;-79
2023/05/07 12:37:25;;;;;;;14.35;12.52;;;;;;;;;;5026541;28;100399;-79
2023/05/07 12:40:12;;;;;;;15.43;14.00;;;;;;;;;;5011364;28;99154;-80
2023/05/07 12:42:40;;;;;;;13.32;12.13;;;;;;;;;;5029262;28;100168;-78
2023/05/07 12:45:11;;;;;;;19.67;12.65;;;;;;;;;;5012484;28;99696;-77
2023/05/07 12:47:46;;;;;;;13.20;11.93;;;;;;;;;;5030879;27;100889;-79
2023/05/07 12:50:16;;;;;;;14.63;11.75;;;;;;;;;;5028690;28;99199;-80
2023/05/07 12:52:45;;;;;;;13.55;11.95;;;;;;;;;;5026018;28;100182;-79
2023/05/07 12:55:13;;;;;;;12.65;11.15;;;;;;;;;;5028984;28;99941;-78
2023/05/07 12:57:43;;;;;;;18.30;12.10;;;;;;;;;;5026600;28;100307;-79
2023/05/07 13:00:11;;;;;;;12.85;11.68;;;;;;;;;;5011515;28;98881;-80
2023/05/07 13:02:38;;;;;;;17.73;11.60;;;;;;;;;;5013019;28;100032;-79
2023/05/07 13:05:07;;;;;;;13.20;12.00;;;;;;;;;;5007541;28;100355;-78
2023/05/07 13:07:34;;;;;;;13.70;11.80;;;;;;;;;;5009557;28;99914;-79
2023/05/07 13:10:00;;;;;;;12.82;11.65;;;;;;;;;;5028792;28;99560;-79
2023/05/07 13:12:28;;;;;;;12.95;11.52;;;;;;;;;;5031598;27;99021;-79
2023/05/07 13:14:55;;;;;;;8.95;8.07;;;;;;;;;;5023577;28;99236;-80
2023/05/07 13:17:22;;;;;;;12.75;10.10;;;;;;;;;;5024530;28;100370;-80
2023/05/07 13:19:50;;;;;;;11.98;10.50;;;;;;;;;;5019067;28;99085;-80
2023/05/07 13:22:16;;;;;;;12.73;11.55;;;;;;;;;;5038164;27;99647;-79
2023/05/07 13:24:43;;;;;;;17.20;11.25;;;;;;;;;;5029412;27;100197;-80
2023/05/07 13:27:10;;;;;;;13.70;10.20;;;;;;;;;;5028748;28;100799;-77
2023/05/07 13:29:36;;;;;;;13.10;9.68;;;;;;;;;;5029630;28;99985;-81
2023/05/07 13:32:02;;;;;;;13.00;11.05;;;;;;;;;;5022999;28;101318;-79
2023/05/07 13:34:30;;;;;;;11.57;9.88;;;;;;;;;;5009450;28;99573;-80
2023/05/07 13:36:57;;;;;;;10.93;9.88;;;;;;;;;;5018890;28;99509;-80
2023/05/07 13:39:24;;;;;;;16.83;11.43;;;;;;;;;;5019444;28;99960;-76
2023/05/07 13:41:50;;;;;;;15.63;11.07;;;;;;;;;;5029882;27;99996;-77
2023/05/07 13:44:17;;;;;;;12.88;11.02;;;;;;;;;;5020804;27;99419;-77
2023/05/07 13:46:45;;;;;;;12.13;11.02;;;;;;;;;;4999716;28;98979;-76
2023/05/07 13:49:13;;;;;;;12.88;11.40;;;;;;;;;;5026507;27;101788;-77
2023/05/07 13:51:39;;;;;;;14.98;11.65;;;;;;;;;;5020026;28;99126;-77
2023/05/07 13:54:06;;;;;;;12.98;11.32;;;;;;;;;;5025813;28;99888;-79
2023/05/07 13:56:32;;;;;;;13.27;12.07;;;;;;;;;;5013944;28;99979;-78
2023/05/07 13:58:59;;;;;;;13.80;12.50;;;;;;;;;;5023818;28;99968;-77
2023/05/07 14:01:26;;;;;;;13.68;12.38;;;;;;;;;;5032246;27;98896;-77
2023/05/07 14:03:53;;;;;;;13.00;11.73;;;;;;;;;;5022140;27;100125;-77
2023/05/07 14:06:19;;;;;;;15.23;13.65;;;;;;;;;;5025391;27;99798;-77
2023/05/07 14:08:46;;;;;;;13.45;12.18;;;;;;;;;;5023126;28;98747;-76
2023/05/07 14:11:12;;;;;;;13.75;12.30;;;;;;;;;;5016811;28;100381;-75
2023/05/07 14:13:38;;;;;;;13.50;12.20;;;;;;;;;;5013268;28;99228;-76
2023/05/07 14:16:05;;;;;;;13.10;11.73;;;;;;;;;;5026845;28;98959;-76
2023/05/07 14:18:33;;;;;;;13.88;12.48;;;;;;;;;;5030134;28;99124;-78
2023/05/07 14:21:00;;;;;;;13.95;12.10;;;;;;;;;;5027739;28;99787;-76